sensor_id;sensor_type;location;lat;lon;timestamp;temperature;humidity
52675;DHT22;38569;52.722;6.440;2022-12-15T00:00:53;-3.90;99.90
52675;DHT22;38569;52.722;6.440;2022-12-15T00:03:38;-3.80;99.90
52675;DHT22;38569;52.722;6.440;2022-12-15T00:06:22;-3.80;99.90
52675;DHT22;38569;52.722;6.440;2022-12-15T00:09:06;-3.80;99.90
52675;DHT22;38569;52.722;6.440;2022-12-15T00:11:50;-3.80;99.90
52675;DHT22;38569;52.722;6.440;2022-12-15T00:14:34;-3.80;99.90
52675;DHT22;38569;52.722;6.440;2022-12-15T00:17:18;-3.90;99.90
52675;DHT22;38569;52.722;6.440;2022-12-15T00:20:02;-3.80;99.90
52675;DHT22;38569;52.722;6.440;2022-12-15T00:22:47;-3.90;99.90
52675;DHT22;38569;52.722;6.440;2022-12-15T00:25:31;-3.90;99.90
52675;DHT22;38569;52.722;6.440;2022-12-15T00:28:15;-3.90;99.90
52675;DHT22;38569;52.722;6.440;2022-12-15T00:30:59;-3.90;99.90
52675;DHT22;38569;52.722;6.440;2022-12-15T00:33:43;-3.90;99.90
52675;DHT22;38569;52.722;6.440;2022-12-15T00:36:27;-4.00;99.90
52675;DHT22;38569;52.722;6.440;2022-12-15T00:39:11;-4.00;99.90
52675;DHT22;38569;52.722;6.440;2022-12-15T00:41:37;-4.00;99.90
52675;DHT22;38569;52.722;6.440;2022-12-15T00:44:03;-4.00;99.90
52675;DHT22;38569;52.722;6.440;2022-12-15T00:46:28;-4.00;99.90
52675;DHT22;38569;52.722;6.440;2022-12-15T00:49:12;-4.00;99.90
52675;DHT22;38569;52.722;6.440;2022-12-15T00:51:57;-4.00;99.90
52675;DHT22;38569;52.722;6.440;2022-12-15T00:54:40;-3.90;99.90
52675;DHT22;38569;52.722;6.440;2022-12-15T00:57:25;-3.90;99.90
52675;DHT22;38569;52.722;6.440;2022-12-15T01:00:09;-3.90;99.90
52675;DHT22;38569;52.722;6.440;2022-12-15T01:02:53;-3.90;99.90
52675;DHT22;38569;52.722;6.440;2022-12-15T01:05:38;-3.90;99.90
52675;DHT22;38569;52.722;6.440;2022-12-15T01:08:22;-4.00;99.90
52675;DHT22;38569;52.722;6.440;2022-12-15T01:11:06;-4.00;99.90
52675;DHT22;38569;52.722;6.440;2022-12-15T01:13:50;-4.00;99.90
52675;DHT22;38569;52.722;6.440;2022-12-15T01:16:34;-4.00;99.90
52675;DHT22;38569;52.722;6.440;2022-12-15T01:19:18;-4.00;99.90
52675;DHT22;38569;52.722;6.440;2022-12-15T01:22:02;-4.00;99.90
52675;DHT22;38569;52.722;6.440;2022-12-15T01:24:27;-4.00;99.90
52675;DHT22;38569;52.722;6.440;2022-12-15T01:26:53;-4.00;99.90
52675;DHT22;38569;52.722;6.440;2022-12-15T01:29:19;-3.90;99.90
52675;DHT22;38569;52.722;6.440;2022-12-15T01:31:44;-3.90;99.90
52675;DHT22;38569;52.722;6.440;2022-12-15T01:34:10;-3.90;99.90
52675;DHT22;38569;52.722;6.440;2022-12-15T01:36:36;-3.90;99.90
52675;DHT22;38569;52.722;6.440;2022-12-15T01:39:02;-3.90;99.90
52675;DHT22;38569;52.722;6.440;2022-12-15T01:41:28;-3.90;99.90
52675;DHT22;38569;52.722;6.440;2022-12-15T01:43:54;-3.90;99.90
52675;DHT22;38569;52.722;6.440;2022-12-15T01:46:21;-3.90;99.90
52675;DHT22;38569;52.722;6.440;2022-12-15T01:48:58;-3.90;99.90
52675;DHT22;38569;52.722;6.440;2022-12-15T01:51:37;-3.90;99.90
52675;DHT22;38569;52.722;6.440;2022-12-15T01:54:06;-3.90;99.90
52675;DHT22;38569;52.722;6.440;2022-12-15T01:56:48;-3.90;99.90
52675;DHT22;38569;52.722;6.440;2022-12-15T01:59:20;-3.90;99.90
52675;DHT22;38569;52.722;6.440;2022-12-15T02:01:46;-3.90;99.90
52675;DHT22;38569;52.722;6.440;2022-12-15T02:04:14;-3.90;99.90
52675;DHT22;38569;52.722;6.440;2022-12-15T02:06:40;-3.90;99.90
52675;DHT22;38569;52.722;6.440;2022-12-15T02:09:06;-3.90;99.90
52675;DHT22;38569;52.722;6.440;2022-12-15T02:11:37;-3.90;99.90
52675;DHT22;38569;52.722;6.440;2022-12-15T02:14:07;-3.90;99.90
52675;DHT22;38569;52.722;6.440;2022-12-15T02:17:39;-3.90;99.90
52675;DHT22;38569;52.722;6.440;2022-12-15T02:31:35;-3.90;99.90
52675;DHT22;38569;52.722;6.440;2022-12-15T02:37:13;-3.90;99.90
52675;DHT22;38569;52.722;6.440;2022-12-15T02:39:39;-4.00;99.90
52675;DHT22;38569;52.722;6.440;2022-12-15T02:42:05;-4.00;99.90
52675;DHT22;38569;52.722;6.440;2022-12-15T03:01:50;-3.90;99.90
52675;DHT22;38569;52.722;6.440;2022-12-15T03:04:18;-4.00;99.90
52675;DHT22;38569;52.722;6.440;2022-12-15T03:06:44;-3.90;99.90
52675;DHT22;38569;52.722;6.440;2022-12-15T03:09:10;-3.90;99.90
52675;DHT22;38569;52.722;6.440;2022-12-15T03:11:37;-3.90;99.90
52675;DHT22;38569;52.722;6.440;2022-12-15T03:14:02;-3.90;99.90
52675;DHT22;38569;52.722;6.440;2022-12-15T03:16:28;-3.90;99.90
52675;DHT22;38569;52.722;6.440;2022-12-15T03:18:54;-3.90;99.90
52675;DHT22;38569;52.722;6.440;2022-12-15T03:21:19;-3.90;99.90
52675;DHT22;38569;52.722;6.440;2022-12-15T03:23:45;-3.80;99.90
52675;DHT22;38569;52.722;6.440;2022-12-15T03:26:11;-3.80;99.90
52675;DHT22;38569;52.722;6.440;2022-12-15T03:28:37;-3.80;99.90
52675;DHT22;38569;52.722;6.440;2022-12-15T03:31:02;-3.80;99.90
52675;DHT22;38569;52.722;6.440;2022-12-15T03:33:28;-3.70;99.90
52675;DHT22;38569;52.722;6.440;2022-12-15T03:35:54;-3.70;99.90
52675;DHT22;38569;52.722;6.440;2022-12-15T03:38:20;-3.70;99.90
52675;DHT22;38569;52.722;6.440;2022-12-15T03:40:46;-3.70;99.90
52675;DHT22;38569;52.722;6.440;2022-12-15T03:43:11;-3.70;99.90
52675;DHT22;38569;52.722;6.440;2022-12-15T03:45:37;-3.70;99.90
52675;DHT22;38569;52.722;6.440;2022-12-15T03:48:03;-3.70;99.90
52675;DHT22;38569;52.722;6.440;2022-12-15T03:50:29;-3.70;99.90
52675;DHT22;38569;52.722;6.440;2022-12-15T03:52:59;-3.70;99.90
52675;DHT22;38569;52.722;6.440;2022-12-15T03:55:26;-3.70;99.90
52675;DHT22;38569;52.722;6.440;2022-12-15T03:57:53;-3.70;99.90
52675;DHT22;38569;52.722;6.440;2022-12-15T04:00:20;-3.70;99.90
52675;DHT22;38569;52.722;6.440;2022-12-15T04:02:47;-3.70;99.90
52675;DHT22;38569;52.722;6.440;2022-12-15T04:05:17;-3.70;99.90
52675;DHT22;38569;52.722;6.440;2022-12-15T04:07:42;-3.70;99.90
52675;DHT22;38569;52.722;6.440;2022-12-15T04:10:10;-3.70;99.90
52675;DHT22;38569;52.722;6.440;2022-12-15T04:12:36;-3.70;99.90
52675;DHT22;38569;52.722;6.440;2022-12-15T04:15:05;-3.70;99.90
52675;DHT22;38569;52.722;6.440;2022-12-15T04:17:31;-3.60;99.90
52675;DHT22;38569;52.722;6.440;2022-12-15T04:19:57;-3.60;99.90
52675;DHT22;38569;52.722;6.440;2022-12-15T04:22:40;-3.60;99.90
52675;DHT22;38569;52.722;6.440;2022-12-15T04:25:08;-3.60;99.90
52675;DHT22;38569;52.722;6.440;2022-12-15T04:27:52;-3.70;99.90
52675;DHT22;38569;52.722;6.440;2022-12-15T04:30:37;-3.70;99.90
52675;DHT22;38569;52.722;6.440;2022-12-15T04:33:23;-3.70;99.90
52675;DHT22;38569;52.722;6.440;2022-12-15T04:36:09;-3.70;99.90
52675;DHT22;38569;52.722;6.440;2022-12-15T04:38:54;-3.70;99.90
52675;DHT22;38569;52.722;6.440;2022-12-15T04:41:38;-3.70;99.90
52675;DHT22;38569;52.722;6.440;2022-12-15T04:44:22;-3.70;99.90
52675;DHT22;38569;52.722;6.440;2022-12-15T04:47:06;-3.70;99.90
52675;DHT22;38569;52.722;6.440;2022-12-15T04:49:50;-3.70;99.90
52675;DHT22;38569;52.722;6.440;2022-12-15T04:52:34;-3.70;99.90
52675;DHT22;38569;52.722;6.440;2022-12-15T04:55:19;-3.70;99.90
52675;DHT22;38569;52.722;6.440;2022-12-15T04:58:08;-3.70;99.90
52675;DHT22;38569;52.722;6.440;2022-12-15T05:00:55;-3.70;99.90
52675;DHT22;38569;52.722;6.440;2022-12-15T05:03:39;-3.80;99.90
52675;DHT22;38569;52.722;6.440;2022-12-15T05:06:24;-3.80;99.90
52675;DHT22;38569;52.722;6.440;2022-12-15T05:09:08;-3.80;99.90
52675;DHT22;38569;52.722;6.440;2022-12-15T05:11:52;-3.90;99.90
52675;DHT22;38569;52.722;6.440;2022-12-15T05:14:36;-3.80;99.90
52675;DHT22;38569;52.722;6.440;2022-12-15T05:17:20;-3.90;99.90
52675;DHT22;38569;52.722;6.440;2022-12-15T05:20:04;-3.80;99.90
52675;DHT22;38569;52.722;6.440;2022-12-15T05:22:55;-3.90;99.90
52675;DHT22;38569;52.722;6.440;2022-12-15T05:25:40;-3.80;99.90
52675;DHT22;38569;52.722;6.440;2022-12-15T05:28:24;-3.90;99.90
52675;DHT22;38569;52.722;6.440;2022-12-15T05:31:09;-3.90;99.90
52675;DHT22;38569;52.722;6.440;2022-12-15T05:33:54;-3.90;99.90
52675;DHT22;38569;52.722;6.440;2022-12-15T05:36:20;-3.80;99.90
52675;DHT22;38569;52.722;6.440;2022-12-15T05:38:48;-3.80;99.90
52675;DHT22;38569;52.722;6.440;2022-12-15T05:41:14;-3.80;99.90
52675;DHT22;38569;52.722;6.440;2022-12-15T05:43:39;-3.70;99.90
52675;DHT22;38569;52.722;6.440;2022-12-15T05:46:05;-3.70;99.90
52675;DHT22;38569;52.722;6.440;2022-12-15T05:48:34;-3.70;99.90
52675;DHT22;38569;52.722;6.440;2022-12-15T05:51:08;-3.60;99.90
52675;DHT22;38569;52.722;6.440;2022-12-15T05:53:36;-3.50;99.90
52675;DHT22;38569;52.722;6.440;2022-12-15T05:56:07;-3.50;99.90
52675;DHT22;38569;52.722;6.440;2022-12-15T05:58:33;-3.60;99.90
52675;DHT22;38569;52.722;6.440;2022-12-15T06:01:10;-3.50;99.90
52675;DHT22;38569;52.722;6.440;2022-12-15T06:03:38;-3.60;99.90
52675;DHT22;38569;52.722;6.440;2022-12-15T06:06:04;-3.50;99.90
52675;DHT22;38569;52.722;6.440;2022-12-15T06:08:32;-3.50;99.90
52675;DHT22;38569;52.722;6.440;2022-12-15T06:10:59;-3.50;99.90
52675;DHT22;38569;52.722;6.440;2022-12-15T06:13:25;-3.50;99.90
52675;DHT22;38569;52.722;6.440;2022-12-15T06:16:00;-3.50;99.90
52675;DHT22;38569;52.722;6.440;2022-12-15T06:18:29;-3.50;99.90
52675;DHT22;38569;52.722;6.440;2022-12-15T06:21:00;-3.50;99.90
52675;DHT22;38569;52.722;6.440;2022-12-15T06:23:30;-3.50;99.90
52675;DHT22;38569;52.722;6.440;2022-12-15T06:25:57;-3.50;99.90
52675;DHT22;38569;52.722;6.440;2022-12-15T06:28:24;-3.50;99.90
52675;DHT22;38569;52.722;6.440;2022-12-15T06:30:54;-3.40;99.90
52675;DHT22;38569;52.722;6.440;2022-12-15T06:33:21;-3.40;99.90
52675;DHT22;38569;52.722;6.440;2022-12-15T06:35:47;-3.40;99.90
52675;DHT22;38569;52.722;6.440;2022-12-15T06:38:13;-3.40;99.90
52675;DHT22;38569;52.722;6.440;2022-12-15T06:40:39;-3.40;99.90
52675;DHT22;38569;52.722;6.440;2022-12-15T06:43:06;-3.40;99.90
52675;DHT22;38569;52.722;6.440;2022-12-15T06:45:32;-3.40;99.90
52675;DHT22;38569;52.722;6.440;2022-12-15T06:47:58;-3.40;99.90
52675;DHT22;38569;52.722;6.440;2022-12-15T06:50:23;-3.40;99.90
52675;DHT22;38569;52.722;6.440;2022-12-15T06:52:49;-3.40;99.90
52675;DHT22;38569;52.722;6.440;2022-12-15T06:55:15;-3.40;99.90
52675;DHT22;38569;52.722;6.440;2022-12-15T06:57:40;-3.40;99.90
52675;DHT22;38569;52.722;6.440;2022-12-15T07:00:07;-3.40;99.90
52675;DHT22;38569;52.722;6.440;2022-12-15T07:02:32;-3.50;99.90
52675;DHT22;38569;52.722;6.440;2022-12-15T07:04:59;-3.40;99.90
52675;DHT22;38569;52.722;6.440;2022-12-15T07:07:25;-3.40;99.90
52675;DHT22;38569;52.722;6.440;2022-12-15T07:09:50;-3.50;99.90
52675;DHT22;38569;52.722;6.440;2022-12-15T07:12:16;-3.50;99.90
52675;DHT22;38569;52.722;6.440;2022-12-15T07:14:42;-3.50;99.90
52675;DHT22;38569;52.722;6.440;2022-12-15T07:17:08;-3.50;99.90
52675;DHT22;38569;52.722;6.440;2022-12-15T07:19:36;-3.50;99.90
52675;DHT22;38569;52.722;6.440;2022-12-15T07:22:02;-3.50;99.90
52675;DHT22;38569;52.722;6.440;2022-12-15T07:24:27;-3.40;99.90
52675;DHT22;38569;52.722;6.440;2022-12-15T07:26:53;-3.40;99.90
52675;DHT22;38569;52.722;6.440;2022-12-15T07:29:19;-3.40;99.90
52675;DHT22;38569;52.722;6.440;2022-12-15T07:31:45;-3.30;99.90
52675;DHT22;38569;52.722;6.440;2022-12-15T07:34:10;-3.30;99.90
52675;DHT22;38569;52.722;6.440;2022-12-15T07:36:37;-3.30;99.90
52675;DHT22;38569;52.722;6.440;2022-12-15T07:39:03;-3.20;99.90
52675;DHT22;38569;52.722;6.440;2022-12-15T07:41:29;-3.20;99.90
52675;DHT22;38569;52.722;6.440;2022-12-15T07:43:56;-3.20;99.90
52675;DHT22;38569;52.722;6.440;2022-12-15T07:46:23;-3.10;99.90
52675;DHT22;38569;52.722;6.440;2022-12-15T07:48:50;-3.00;99.90
52675;DHT22;38569;52.722;6.440;2022-12-15T07:51:16;-2.90;99.90
52675;DHT22;38569;52.722;6.440;2022-12-15T07:53:43;-2.90;99.90
52675;DHT22;38569;52.722;6.440;2022-12-15T07:56:09;-2.90;99.90
52675;DHT22;38569;52.722;6.440;2022-12-15T07:58:35;-2.80;99.90
52675;DHT22;38569;52.722;6.440;2022-12-15T08:01:04;-2.80;99.90
52675;DHT22;38569;52.722;6.440;2022-12-15T08:03:30;-2.70;99.90
52675;DHT22;38569;52.722;6.440;2022-12-15T08:05:56;-2.60;99.90
52675;DHT22;38569;52.722;6.440;2022-12-15T08:08:22;-2.60;99.90
52675;DHT22;38569;52.722;6.440;2022-12-15T08:10:47;-2.50;99.90
52675;DHT22;38569;52.722;6.440;2022-12-15T08:13:13;-2.50;99.90
52675;DHT22;38569;52.722;6.440;2022-12-15T08:15:39;-2.50;99.90
52675;DHT22;38569;52.722;6.440;2022-12-15T08:18:06;-2.50;99.90
52675;DHT22;38569;52.722;6.440;2022-12-15T08:20:33;-2.50;99.90
52675;DHT22;38569;52.722;6.440;2022-12-15T08:23:00;-2.50;99.90
52675;DHT22;38569;52.722;6.440;2022-12-15T08:25:26;-2.40;99.90
52675;DHT22;38569;52.722;6.440;2022-12-15T08:27:55;-2.40;99.90
52675;DHT22;38569;52.722;6.440;2022-12-15T08:30:22;-2.30;99.90
52675;DHT22;38569;52.722;6.440;2022-12-15T08:32:47;-2.30;99.90
52675;DHT22;38569;52.722;6.440;2022-12-15T08:35:13;-2.30;99.90
52675;DHT22;38569;52.722;6.440;2022-12-15T08:37:39;-2.20;99.90
52675;DHT22;38569;52.722;6.440;2022-12-15T08:40:06;-2.20;99.90
52675;DHT22;38569;52.722;6.440;2022-12-15T08:42:36;-2.20;99.90
52675;DHT22;38569;52.722;6.440;2022-12-15T08:45:02;-2.10;99.90
52675;DHT22;38569;52.722;6.440;2022-12-15T08:47:28;-2.00;99.90
52675;DHT22;38569;52.722;6.440;2022-12-15T08:49:54;-1.90;99.90
52675;DHT22;38569;52.722;6.440;2022-12-15T08:52:23;-1.90;99.90
52675;DHT22;38569;52.722;6.440;2022-12-15T08:54:49;-1.80;99.90
52675;DHT22;38569;52.722;6.440;2022-12-15T08:57:14;-1.90;99.90
52675;DHT22;38569;52.722;6.440;2022-12-15T08:59:40;-1.80;99.90
52675;DHT22;38569;52.722;6.440;2022-12-15T09:02:08;-1.80;99.90
52675;DHT22;38569;52.722;6.440;2022-12-15T09:04:34;-1.80;99.90
52675;DHT22;38569;52.722;6.440;2022-12-15T09:06:59;-1.70;99.90
52675;DHT22;38569;52.722;6.440;2022-12-15T09:09:25;-1.60;99.90
52675;DHT22;38569;52.722;6.440;2022-12-15T09:11:51;-1.50;99.90
52675;DHT22;38569;52.722;6.440;2022-12-15T09:14:17;-1.30;99.90
52675;DHT22;38569;52.722;6.440;2022-12-15T09:16:43;-1.10;99.90
52675;DHT22;38569;52.722;6.440;2022-12-15T09:19:09;-0.90;99.90
52675;DHT22;38569;52.722;6.440;2022-12-15T09:21:35;-0.90;99.90
52675;DHT22;38569;52.722;6.440;2022-12-15T09:24:01;-0.80;99.90
52675;DHT22;38569;52.722;6.440;2022-12-15T09:26:30;-0.70;99.90
52675;DHT22;38569;52.722;6.440;2022-12-15T09:28:56;-0.50;99.90
52675;DHT22;38569;52.722;6.440;2022-12-15T09:31:24;0.00;99.90
52675;DHT22;38569;52.722;6.440;2022-12-15T09:33:53;1.00;99.90
52675;DHT22;38569;52.722;6.440;2022-12-15T09:36:20;1.90;99.90
52675;DHT22;38569;52.722;6.440;2022-12-15T09:38:46;2.50;99.90
52675;DHT22;38569;52.722;6.440;2022-12-15T09:46:36;1.40;99.90
52675;DHT22;38569;52.722;6.440;2022-12-15T09:52:03;0.80;99.90
52675;DHT22;38569;52.722;6.440;2022-12-15T09:54:32;0.70;99.90
52675;DHT22;38569;52.722;6.440;2022-12-15T09:57:04;0.70;99.90
52675;DHT22;38569;52.722;6.440;2022-12-15T09:59:40;0.60;99.90
52675;DHT22;38569;52.722;6.440;2022-12-15T10:07:31;0.90;99.90
52675;DHT22;38569;52.722;6.440;2022-12-15T10:10:23;1.00;99.90
52675;DHT22;38569;52.722;6.440;2022-12-15T10:12:52;1.20;99.90
52675;DHT22;38569;52.722;6.440;2022-12-15T10:15:28;1.80;99.90
52675;DHT22;38569;52.722;6.440;2022-12-15T10:18:03;1.80;99.90
52675;DHT22;38569;52.722;6.440;2022-12-15T10:20:30;1.60;99.90
52675;DHT22;38569;52.722;6.440;2022-12-15T10:23:10;1.70;99.90
52675;DHT22;38569;52.722;6.440;2022-12-15T10:25:37;2.40;99.90
52675;DHT22;38569;52.722;6.440;2022-12-15T10:31:08;4.20;99.90
52675;DHT22;38569;52.722;6.440;2022-12-15T10:33:40;4.80;99.90
52675;DHT22;38569;52.722;6.440;2022-12-15T10:36:11;5.60;99.90
52675;DHT22;38569;52.722;6.440;2022-12-15T10:38:39;5.80;99.90
52675;DHT22;38569;52.722;6.440;2022-12-15T10:41:20;5.40;99.90
52675;DHT22;38569;52.722;6.440;2022-12-15T10:43:49;5.10;99.90
52675;DHT22;38569;52.722;6.440;2022-12-15T10:49:19;3.50;99.90
52675;DHT22;38569;52.722;6.440;2022-12-15T10:51:56;2.90;99.90
52675;DHT22;38569;52.722;6.440;2022-12-15T10:54:23;2.80;99.90
52675;DHT22;38569;52.722;6.440;2022-12-15T10:56:51;3.00;99.90
52675;DHT22;38569;52.722;6.440;2022-12-15T11:05:08;2.70;99.90
52675;DHT22;38569;52.722;6.440;2022-12-15T11:10:21;3.50;99.90
52675;DHT22;38569;52.722;6.440;2022-12-15T11:13:09;3.70;99.90
52675;DHT22;38569;52.722;6.440;2022-12-15T11:15:40;4.50;99.90
52675;DHT22;38569;52.722;6.440;2022-12-15T11:26:48;6.30;99.90
52675;DHT22;38569;52.722;6.440;2022-12-15T11:29:53;6.00;99.90
52675;DHT22;38569;52.722;6.440;2022-12-15T11:32:17;5.10;99.90
52675;DHT22;38569;52.722;6.440;2022-12-15T11:34:46;4.30;99.90
52675;DHT22;38569;52.722;6.440;2022-12-15T11:43:26;4.00;99.90
52675;DHT22;38569;52.722;6.440;2022-12-15T11:46:13;4.70;99.90
52675;DHT22;38569;52.722;6.440;2022-12-15T11:51:24;4.80;99.90
52675;DHT22;38569;52.722;6.440;2022-12-15T11:56:39;4.80;99.90
52675;DHT22;38569;52.722;6.440;2022-12-15T12:02:53;4.40;99.90
52675;DHT22;38569;52.722;6.440;2022-12-15T12:05:49;4.00;99.90
52675;DHT22;38569;52.722;6.440;2022-12-15T12:14:03;3.00;99.90
52675;DHT22;38569;52.722;6.440;2022-12-15T12:16:51;2.90;99.90
52675;DHT22;38569;52.722;6.440;2022-12-15T12:19:31;2.90;99.90
52675;DHT22;38569;52.722;6.440;2022-12-15T12:22:05;2.90;99.90
52675;DHT22;38569;52.722;6.440;2022-12-15T12:24:39;2.90;99.90
52675;DHT22;38569;52.722;6.440;2022-12-15T12:27:37;2.90;99.90
52675;DHT22;38569;52.722;6.440;2022-12-15T12:30:16;2.80;99.90
52675;DHT22;38569;52.722;6.440;2022-12-15T12:33:49;3.10;99.90
52675;DHT22;38569;52.722;6.440;2022-12-15T12:35:53;3.40;99.90
52675;DHT22;38569;52.722;6.440;2022-12-15T12:38:28;3.70;99.90
52675;DHT22;38569;52.722;6.440;2022-12-15T12:41:12;4.00;99.90
52675;DHT22;38569;52.722;6.440;2022-12-15T12:43:43;4.10;99.90
52675;DHT22;38569;52.722;6.440;2022-12-15T12:46:17;4.30;99.90
52675;DHT22;38569;52.722;6.440;2022-12-15T12:53:54;4.00;99.90
52675;DHT22;38569;52.722;6.440;2022-12-15T12:56:43;3.90;99.90
52675;DHT22;38569;52.722;6.440;2022-12-15T13:01:54;3.70;99.90
52675;DHT22;38569;52.722;6.440;2022-12-15T13:07:02;3.50;99.90
52675;DHT22;38569;52.722;6.440;2022-12-15T13:09:42;3.50;99.90
52675;DHT22;38569;52.722;6.440;2022-12-15T13:15:38;3.40;99.90
52675;DHT22;38569;52.722;6.440;2022-12-15T13:18:19;3.40;99.90
52675;DHT22;38569;52.722;6.440;2022-12-15T13:20:47;3.30;99.90
52675;DHT22;38569;52.722;6.440;2022-12-15T13:41:41;3.10;99.90
52675;DHT22;38569;52.722;6.440;2022-12-15T13:46:44;3.10;99.90
52675;DHT22;38569;52.722;6.440;2022-12-15T13:49:27;3.10;99.90
52675;DHT22;38569;52.722;6.440;2022-12-15T13:52:00;3.00;99.90
52675;DHT22;38569;52.722;6.440;2022-12-15T13:54:38;3.00;99.90
52675;DHT22;38569;52.722;6.440;2022-12-15T13:57:09;3.00;99.90
52675;DHT22;38569;52.722;6.440;2022-12-15T14:02:27;2.90;99.90
52675;DHT22;38569;52.722;6.440;2022-12-15T14:07:33;2.80;99.90
52675;DHT22;38569;52.722;6.440;2022-12-15T14:09:59;2.80;99.90
52675;DHT22;38569;52.722;6.440;2022-12-15T14:12:25;2.80;99.90
52675;DHT22;38569;52.722;6.440;2022-12-15T14:14:51;2.80;99.90
52675;DHT22;38569;52.722;6.440;2022-12-15T14:17:18;2.70;99.90
52675;DHT22;38569;52.722;6.440;2022-12-15T14:19:47;2.70;99.90
52675;DHT22;38569;52.722;6.440;2022-12-15T14:22:22;2.70;99.90
52675;DHT22;38569;52.722;6.440;2022-12-15T14:24:49;2.70;99.90
52675;DHT22;38569;52.722;6.440;2022-12-15T14:27:27;2.60;99.90
52675;DHT22;38569;52.722;6.440;2022-12-15T14:30:28;2.60;99.90
52675;DHT22;38569;52.722;6.440;2022-12-15T14:33:01;2.50;99.90
52675;DHT22;38569;52.722;6.440;2022-12-15T14:38:13;2.50;99.90
52675;DHT22;38569;52.722;6.440;2022-12-15T14:40:40;2.40;99.90
52675;DHT22;38569;52.722;6.440;2022-12-15T14:43:14;2.40;99.90
52675;DHT22;38569;52.722;6.440;2022-12-15T14:45:43;2.50;99.90
52675;DHT22;38569;52.722;6.440;2022-12-15T14:48:09;2.40;99.90
52675;DHT22;38569;52.722;6.440;2022-12-15T14:50:35;2.30;99.90
52675;DHT22;38569;52.722;6.440;2022-12-15T14:53:05;2.10;99.90
52675;DHT22;38569;52.722;6.440;2022-12-15T14:55:36;2.10;99.90
52675;DHT22;38569;52.722;6.440;2022-12-15T15:00:54;2.00;99.90
52675;DHT22;38569;52.722;6.440;2022-12-15T15:03:24;1.80;99.90
52675;DHT22;38569;52.722;6.440;2022-12-15T15:05:54;1.80;99.90
52675;DHT22;38569;52.722;6.440;2022-12-15T15:08:32;1.70;99.90
52675;DHT22;38569;52.722;6.440;2022-12-15T15:11:01;1.70;99.90
52675;DHT22;38569;52.722;6.440;2022-12-15T15:13:36;1.60;99.90
52675;DHT22;38569;52.722;6.440;2022-12-15T15:16:06;1.60;99.90
52675;DHT22;38569;52.722;6.440;2022-12-15T15:18:32;1.50;99.90
52675;DHT22;38569;52.722;6.440;2022-12-15T15:21:03;1.40;99.90
52675;DHT22;38569;52.722;6.440;2022-12-15T15:23:30;1.40;99.90
52675;DHT22;38569;52.722;6.440;2022-12-15T15:26:05;1.40;99.90
52675;DHT22;38569;52.722;6.440;2022-12-15T15:28:39;1.30;99.90
52675;DHT22;38569;52.722;6.440;2022-12-15T15:33:50;1.30;99.90
52675;DHT22;38569;52.722;6.440;2022-12-15T15:36:15;1.10;99.90
52675;DHT22;38569;52.722;6.440;2022-12-15T15:38:42;1.10;99.90
52675;DHT22;38569;52.722;6.440;2022-12-15T15:43:40;1.00;99.90
52675;DHT22;38569;52.722;6.440;2022-12-15T15:46:12;0.90;99.90
52675;DHT22;38569;52.722;6.440;2022-12-15T15:48:49;0.90;99.90
52675;DHT22;38569;52.722;6.440;2022-12-15T15:51:15;0.80;99.90
52675;DHT22;38569;52.722;6.440;2022-12-15T15:53:41;0.80;99.90
52675;DHT22;38569;52.722;6.440;2022-12-15T15:56:11;0.80;99.90
52675;DHT22;38569;52.722;6.440;2022-12-15T15:58:38;0.80;99.90
52675;DHT22;38569;52.722;6.440;2022-12-15T16:01:05;0.70;99.90
52675;DHT22;38569;52.722;6.440;2022-12-15T16:03:31;0.70;99.90
52675;DHT22;38569;52.722;6.440;2022-12-15T16:05:57;0.60;99.90
52675;DHT22;38569;52.722;6.440;2022-12-15T16:08:29;0.60;99.90
52675;DHT22;38569;52.722;6.440;2022-12-15T16:10:56;0.60;99.90
52675;DHT22;38569;52.722;6.440;2022-12-15T16:13:22;0.60;99.90
52675;DHT22;38569;52.722;6.440;2022-12-15T16:15:48;0.50;99.90
52675;DHT22;38569;52.722;6.440;2022-12-15T16:18:14;0.40;99.90
52675;DHT22;38569;52.722;6.440;2022-12-15T16:20:41;0.30;99.90
52675;DHT22;38569;52.722;6.440;2022-12-15T16:23:16;0.40;99.90
52675;DHT22;38569;52.722;6.440;2022-12-15T16:25:54;0.30;99.90
52675;DHT22;38569;52.722;6.440;2022-12-15T16:28:22;0.20;99.90
52675;DHT22;38569;52.722;6.440;2022-12-15T16:30:48;0.20;99.90
52675;DHT22;38569;52.722;6.440;2022-12-15T16:33:15;0.30;99.90
52675;DHT22;38569;52.722;6.440;2022-12-15T16:35:42;0.20;99.90
52675;DHT22;38569;52.722;6.440;2022-12-15T16:38:26;0.20;99.90
52675;DHT22;38569;52.722;6.440;2022-12-15T16:40:53;0.20;99.90
52675;DHT22;38569;52.722;6.440;2022-12-15T16:43:20;0.20;99.90
52675;DHT22;38569;52.722;6.440;2022-12-15T16:45:48;0.20;99.90
52675;DHT22;38569;52.722;6.440;2022-12-15T16:48:15;0.30;99.90
52675;DHT22;38569;52.722;6.440;2022-12-15T16:50:49;0.20;99.90
52675;DHT22;38569;52.722;6.440;2022-12-15T16:53:17;0.20;99.90
52675;DHT22;38569;52.722;6.440;2022-12-15T16:55:46;0.10;99.90
52675;DHT22;38569;52.722;6.440;2022-12-15T16:58:14;0.10;99.90
52675;DHT22;38569;52.722;6.440;2022-12-15T17:00:42;0.10;99.90
52675;DHT22;38569;52.722;6.440;2022-12-15T17:03:14;0.10;99.90
52675;DHT22;38569;52.722;6.440;2022-12-15T17:05:43;0.00;99.90
52675;DHT22;38569;52.722;6.440;2022-12-15T17:08:19;0.00;99.90
52675;DHT22;38569;52.722;6.440;2022-12-15T17:10:46;0.00;99.90
52675;DHT22;38569;52.722;6.440;2022-12-15T17:13:28;-0.10;99.90
52675;DHT22;38569;52.722;6.440;2022-12-15T17:15:55;-0.10;99.90
52675;DHT22;38569;52.722;6.440;2022-12-15T17:18:21;-0.10;99.90
52675;DHT22;38569;52.722;6.440;2022-12-15T17:20:47;-0.10;99.90
52675;DHT22;38569;52.722;6.440;2022-12-15T17:23:20;-0.10;99.90
52675;DHT22;38569;52.722;6.440;2022-12-15T17:25:48;-0.10;99.90
52675;DHT22;38569;52.722;6.440;2022-12-15T17:28:20;-0.10;99.90
52675;DHT22;38569;52.722;6.440;2022-12-15T17:30:47;0.00;99.90
52675;DHT22;38569;52.722;6.440;2022-12-15T17:35:44;-0.10;99.90
52675;DHT22;38569;52.722;6.440;2022-12-15T17:38:15;-0.20;99.90
52675;DHT22;38569;52.722;6.440;2022-12-15T17:40:43;-0.20;99.90
52675;DHT22;38569;52.722;6.440;2022-12-15T17:43:16;-0.20;99.90
52675;DHT22;38569;52.722;6.440;2022-12-15T17:45:43;-0.20;99.90
52675;DHT22;38569;52.722;6.440;2022-12-15T17:48:09;-0.30;99.90
52675;DHT22;38569;52.722;6.440;2022-12-15T17:50:35;-0.20;99.90
52675;DHT22;38569;52.722;6.440;2022-12-15T17:53:02;-0.20;99.90
52675;DHT22;38569;52.722;6.440;2022-12-15T17:55:30;-0.30;99.90
52675;DHT22;38569;52.722;6.440;2022-12-15T17:57:57;-0.20;99.90
52675;DHT22;38569;52.722;6.440;2022-12-15T18:00:31;-0.20;99.90
52675;DHT22;38569;52.722;6.440;2022-12-15T18:02:59;-0.30;99.90
52675;DHT22;38569;52.722;6.440;2022-12-15T18:05:26;-0.30;99.90
52675;DHT22;38569;52.722;6.440;2022-12-15T18:07:58;-0.30;99.90
52675;DHT22;38569;52.722;6.440;2022-12-15T18:10:37;-0.30;99.90
52675;DHT22;38569;52.722;6.440;2022-12-15T18:13:24;-0.20;99.90
52675;DHT22;38569;52.722;6.440;2022-12-15T18:15:51;-0.20;99.90
52675;DHT22;38569;52.722;6.440;2022-12-15T18:18:18;-0.30;99.90
52675;DHT22;38569;52.722;6.440;2022-12-15T18:20:44;-0.30;99.90
52675;DHT22;38569;52.722;6.440;2022-12-15T18:23:14;-0.30;99.90
52675;DHT22;38569;52.722;6.440;2022-12-15T18:25:41;-0.30;99.90
52675;DHT22;38569;52.722;6.440;2022-12-15T18:28:23;-0.30;99.90